Airfield :
LOGIN :

Register | Disclaimer

   EN    FR    IT 

 










Legend :    VFR   Marginal VFR   IFR   Intensive IFR   Very Intensive IFR
Visi :
Ceiling :
>= 8 km
>= 3000ft
5 to 8 km
1000 to 3000 ft
1500m to 5 km
500 to 1000 ft
800 to 1500m
200 to 500 ft
< 800m
< 200 ft
Symbols :   Thunderstorms  Fog  Heavy snow  Heavy precipitations  Wind > 20 kt
SIGMETs :     Misc.  Thunderstorms  Icing  Turbulence  Mountain Waves  Volcanic Ashes







- Airport Elevation : 52 ft
- IATA code : RNN


EKRN - Bornholm Ronne

CURRENT METAR :
  • 172020Z AUTO 01012KT 340V040 9999 -SHSN FEW011/// BKN031/// OVC048/// 00/M01 Q0996

EXPIRED METARs :
  • 171950Z AUTO 36013KT 6000 -SN BKN007/// BKN024/// OVC047/// 00/M01 Q0995
  • 171920Z AUTO 36011KT 320V030 9999 DZ OVC008/// 02/00 Q0994
  • 171850Z AUTO 35012KT 9999 OVC007/// 02/00 Q0993
  • 171820Z AUTO 27015KT 9999 OVC011/// 04/02 Q0993
  • 171750Z AUTO 25020KT 9999 -SHRA OVC012/// 05/03 Q0992

TAF TAF EKRN
Valid from the 17 at 18:00 until the 17 at 23:00 UTC


171723Z 1718/1723 25022KT 9999 BKN015
TEMPO 1718/1719 4000 SHRA BKN010 BKN015CB
BECMG 1718/1719 36015KT
TEMPO 1719/1723 1200 SHSNRA BKN008 BKN015CB
No reported NOTAMs for that airfield.



MET'MAP, your aeronautical weather chart ! - Copyright ORBIFLY December 2007 - Disclaimer

ORBIFLY MET'MAP TEAM :

Programming & Development : Alexandra Zaïnal
Concept & Development : Baudouin d'Aumeries
Co-Development & Prog : Marc-Olivier Méhu
Technical & hardware support : Manuel Goepfert

Contact : metmap@orbifly.com




SOURCES & CREDITS :

   NOAA